Time;durP1;ratioP1;P1;durP2;ratioP2;P2;SDS_P1;SDS_P2;PMS_P1;PMS_P2;Temp;Humidity;BMP_temperature;BMP_pressure;BME280_temperature;BME280_humidity;BME280_pressure;Samples;Min_cycle;Max_cycle;Signal;HPM_P1;HPM_P2
2023/03/12 00:01:50;;;;;;;;;;;;;;;;;;5009402;28;19996;-57
2023/03/12 00:04:15;;;;;;;;;;;;;;;;;;5014758;28;20304;-58
2023/03/12 00:06:41;;;;;;;;;;;;;;;;;;5027969;28;20126;-58
2023/03/12 00:09:08;;;;;;;;;;;;;;;;;;5024167;28;19964;-57
2023/03/12 00:11:33;;;;;;;;;;;;;;;;;;5025260;28;19964;-58
2023/03/12 00:13:59;;;;;;;;;;;;;;;;;;5027675;28;19959;-57
2023/03/12 00:16:25;;;;;;;;;;;;;;;;;;5021262;28;20332;-58
2023/03/12 00:18:51;;;;;;;;;;;;;;;;;;5012734;28;20901;-58
2023/03/12 00:21:17;;;;;;;;;;;;;;;;;;5014157;28;19909;-57
2023/03/12 00:23:43;;;;;;;;;;;;;;;;;;5016745;28;20393;-56
2023/03/12 00:26:09;;;;;;;;;;;;;;;;;;5010536;28;19919;-58
2023/03/12 00:28:35;;;;;;;;;;;;;;;;;;5028071;28;19971;-58
2023/03/12 00:31:00;;;;;;;;;;;;;;;;;;5028268;28;19920;-57
2023/03/12 00:33:27;;;;;;;;;;;;;;;;;;5027584;28;19953;-57
2023/03/12 00:35:53;;;;;;;;;;;;;;;;;;5027497;28;19956;-57
2023/03/12 00:38:19;;;;;;;;;;;;;;;;;;5027589;28;19952;-57
2023/03/12 00:40:45;;;;;;;;;;;;;;;;;;5027774;28;19909;-57
2023/03/12 00:43:11;;;;;;;;;;;;;;;;;;5016503;28;19913;-56
2023/03/12 00:45:37;;;;;;;;;;;;;;;;;;5025853;28;19909;-57
2023/03/12 00:48:03;;;;;;;;;;;;;;;;;;5012751;28;20008;-57
2023/03/12 00:50:29;;;;;;;;;;;;;;;;;;5012676;28;19913;-57
2023/03/12 00:52:54;;;;;;;;;;;;;;;;;;5012439;28;19928;-58
2023/03/12 00:55:21;;;;;;;;;;;;;;;;;;5013091;28;19925;-58
2023/03/12 00:57:47;;;;;;;;;;;;;;;;;;5030684;28;19917;-58
2023/03/12 01:00:13;;;;;;;;;;;;;;;;;;5031990;28;20250;-57
2023/03/12 01:02:39;;;;;;;;;;;;;;;;;;5025156;28;20004;-57
2023/03/12 01:05:05;;;;;;;;;;;;;;;;;;5031820;28;20366;-57
2023/03/12 01:07:30;;;;;;;;;;;;;;;;;;5030944;28;19913;-57
2023/03/12 01:09:56;;;;;;;;;;;;;;;;;;5014191;28;19909;-58
2023/03/12 01:12:22;;;;;;;;;;;;;;;;;;5025026;28;19925;-57
2023/03/12 01:14:48;;;;;;;;;;;;;;;;;;5031810;28;19920;-57
2023/03/12 01:17:14;;;;;;;;;;;;;;;;;;5031449;28;19913;-57
2023/03/12 01:19:40;;;;;;;;;;;;;;;;;;5021964;28;20742;-57
2023/03/12 01:22:06;;;;;;;;;;;;;;;;;;5011956;28;19913;-58
2023/03/12 01:24:32;;;;;;;;;;;;;;;;;;5015094;28;20823;-57
2023/03/12 01:26:58;;;;;;;;;;;;;;;;;;5030958;28;19923;-56
2023/03/12 01:29:24;;;;;;;;;;;;;;;;;;5030749;28;20008;-58
2023/03/12 01:31:50;;;;;;;;;;;;;;;;;;5029783;28;19917;-58
2023/03/12 01:34:16;;;;;;;;;;;;;;;;;;5011941;28;19929;-58
2023/03/12 01:36:43;;;;;;;;;;;;;;;;;;5020569;28;19918;-57
2023/03/12 01:39:09;;;;;;;;;;;;;;;;;;5019821;28;19914;-57
2023/03/12 01:41:35;;;;;;;;;;;;;;;;;;5018926;28;19913;-57
2023/03/12 01:44:02;;;;;;;;;;;;;;;;;;5023890;28;19916;-58
2023/03/12 01:46:28;;;;;;;;;;;;;;;;;;5011663;28;19909;-58
2023/03/12 01:48:54;;;;;;;;;;;;;;;;;;5011666;28;19913;-57
2023/03/12 01:51:20;;;;;;;;;;;;;;;;;;5014824;28;19923;-57
2023/03/12 01:53:46;;;;;;;;;;;;;;;;;;5030512;28;19920;-57
2023/03/12 01:56:12;;;;;;;;;;;;;;;;;;5029865;28;19955;-58
2023/03/12 01:58:37;;;;;;;;;;;;;;;;;;5025140;28;19913;-57
2023/03/12 02:01:03;;;;;;;;;;;;;;;;;;5029945;28;19913;-58
2023/03/12 02:03:29;;;;;;;;;;;;;;;;;;5030420;28;19910;-57
2023/03/12 02:05:55;;;;;;;;;;;;;;;;;;5029990;28;19913;-57
2023/03/12 02:08:21;;;;;;;;;;;;;;;;;;5030083;28;19909;-57
2023/03/12 02:10:47;;;;;;;;;;;;;;;;;;5030497;28;19909;-58
2023/03/12 02:13:13;;;;;;;;;;;;;;;;;;5030721;28;19921;-57
2023/03/12 02:15:39;;;;;;;;;;;;;;;;;;5026690;28;20325;-57
2023/03/12 02:18:05;;;;;;;;;;;;;;;;;;5010826;28;19921;-57
2023/03/12 02:20:30;;;;;;;;;;;;;;;;;;5011201;28;20728;-57
2023/03/12 02:22:56;;;;;;;;;;;;;;;;;;5011446;28;19916;-57
2023/03/12 02:25:22;;;;;;;;;;;;;;;;;;5019917;28;20191;-58
2023/03/12 02:27:48;;;;;;;;;;;;;;;;;;5029742;28;19928;-57
2023/03/12 02:30:14;;;;;;;;;;;;;;;;;;5023147;28;19913;-58
2023/03/12 02:32:40;;;;;;;;;;;;;;;;;;5029229;28;20390;-57
2023/03/12 02:35:06;;;;;;;;;;;;;;;;;;5016572;28;19949;-57
2023/03/12 02:37:32;;;;;;;;;;;;;;;;;;5011055;28;19913;-57
2023/03/12 02:39:58;;;;;;;;;;;;;;;;;;5011936;28;20000;-57
2023/03/12 02:42:24;;;;;;;;;;;;;;;;;;5029225;28;19909;-57
2023/03/12 02:44:50;;;;;;;;;;;;;;;;;;5024085;28;19917;-57
2023/03/12 02:47:16;;;;;;;;;;;;;;;;;;5016449;28;20016;-57
2023/03/12 02:49:41;;;;;;;;;;;;;;;;;;5011434;28;19913;-56
2023/03/12 02:52:08;;;;;;;;;;;;;;;;;;5010422;28;19967;-56
2023/03/12 02:54:34;;;;;;;;;;;;;;;;;;5010959;28;19917;-57
2023/03/12 02:57:00;;;;;;;;;;;;;;;;;;5016815;28;19913;-57
2023/03/12 02:59:26;;;;;;;;;;;;;;;;;;5010981;28;19913;-57
2023/03/12 03:01:53;;;;;;;;;;;;;;;;;;5010431;28;20390;-57
2023/03/12 03:04:19;;;;;;;;;;;;;;;;;;5010433;28;20390;-57
2023/03/12 03:06:47;;;;;;;;;;;;;;;;;;5009484;28;19924;-56
2023/03/12 03:09:13;;;;;;;;;;;;;;;;;;5013948;28;19956;-57
2023/03/12 03:11:38;;;;;;;;;;;;;;;;;;5028639;28;19956;-57
2023/03/12 03:14:05;;;;;;;;;;;;;;;;;;5029328;28;19913;-56
2023/03/12 03:16:31;;;;;;;;;;;;;;;;;;5028849;28;19920;-56
2023/03/12 03:18:57;;;;;;;;;;;;;;;;;;5018475;28;19914;-58
2023/03/12 03:21:23;;;;;;;;;;;;;;;;;;5026549;28;19917;-57
2023/03/12 03:23:49;;;;;;;;;;;;;;;;;;5025629;28;19967;-57
2023/03/12 03:26:15;;;;;;;;;;;;;;;;;;5010087;28;20013;-57
2023/03/12 03:28:50;;;;;;;;;;;;;;;;;;5045361;28;19927;-56
2023/03/12 03:31:16;;;;;;;;;;;;;;;;;;5044393;28;19917;-57
2023/03/12 03:33:42;;;;;;;;;;;;;;;;;;5043121;28;19909;-57
2023/03/12 03:36:08;;;;;;;;;;;;;;;;;;5040332;28;19928;-56
2023/03/12 03:38:34;;;;;;;;;;;;;;;;;;5026513;28;20008;-57
2023/03/12 03:40:59;;;;;;;;;;;;;;;;;;5035693;28;20000;-57
2023/03/12 03:43:25;;;;;;;;;;;;;;;;;;5045626;28;20320;-57
2023/03/12 03:45:51;;;;;;;;;;;;;;;;;;5045295;28;19932;-57
2023/03/12 03:48:17;;;;;;;;;;;;;;;;;;5044934;28;20345;-57
2023/03/12 03:50:43;;;;;;;;;;;;;;;;;;5045116;28;19917;-58
2023/03/12 03:53:09;;;;;;;;;;;;;;;;;;5045379;28;20301;-57
2023/03/12 03:55:35;;;;;;;;;;;;;;;;;;5045186;28;19948;-57
2023/03/12 03:58:01;;;;;;;;;;;;;;;;;;5045297;28;19916;-57
2023/03/12 04:00:26;;;;;;;;;;;;;;;;;;5044487;28;19960;-57
2023/03/12 04:02:54;;;;;;;;;;;;;;;;;;5044920;28;19909;-56
2023/03/12 04:05:20;;;;;;;;;;;;;;;;;;5042051;28;20012;-57
2023/03/12 04:07:45;;;;;;;;;;;;;;;;;;5044966;28;20027;-57
2023/03/12 04:10:11;;;;;;;;;;;;;;;;;;5044697;28;19913;-57
2023/03/12 04:12:37;;;;;;;;;;;;;;;;;;5044807;28;19913;-56
2023/03/12 04:15:03;;;;;;;;;;;;;;;;;;5024229;28;19955;-57
2023/03/12 04:17:29;;;;;;;;;;;;;;;;;;5037918;28;19916;-57
2023/03/12 04:19:55;;;;;;;;;;;;;;;;;;5044358;28;19913;-57
2023/03/12 04:22:21;;;;;;;;;;;;;;;;;;5044628;28;20433;-57
2023/03/12 04:24:47;;;;;;;;;;;;;;;;;;5044625;28;19913;-57
2023/03/12 04:27:13;;;;;;;;;;;;;;;;;;5051346;28;20005;-57
2023/03/12 04:29:39;;;;;;;;;;;;;;;;;;5062667;28;19908;-57
2023/03/12 04:32:05;;;;;;;;;;;;;;;;;;5046738;28;20554;-57
2023/03/12 04:34:31;;;;;;;;;;;;;;;;;;5045604;28;19913;-57
2023/03/12 04:36:57;;;;;;;;;;;;;;;;;;5061744;28;19923;-58
2023/03/12 04:39:23;;;;;;;;;;;;;;;;;;5050888;28;19932;-56
2023/03/12 04:41:49;;;;;;;;;;;;;;;;;;5032031;28;20010;-57
2023/03/12 04:44:14;;;;;;;;;;;;;;;;;;5034110;28;19919;-57
2023/03/12 04:46:40;;;;;;;;;;;;;;;;;;5051043;28;19913;-57
2023/03/12 04:49:06;;;;;;;;;;;;;;;;;;5032615;28;19916;-57
2023/03/12 04:51:32;;;;;;;;;;;;;;;;;;5040721;28;20546;-56
2023/03/12 04:53:58;;;;;;;;;;;;;;;;;;5047383;28;19956;-57
2023/03/12 04:56:24;;;;;;;;;;;;;;;;;;5030644;28;19909;-57
2023/03/12 04:58:50;;;;;;;;;;;;;;;;;;5031231;28;19963;-57
2023/03/12 05:01:16;;;;;;;;;;;;;;;;;;5031430;28;20012;-57
2023/03/12 05:03:41;;;;;;;;;;;;;;;;;;5031534;28;19909;-57
2023/03/12 05:06:07;;;;;;;;;;;;;;;;;;5032039;28;19913;-57
2023/03/12 05:08:33;;;;;;;;;;;;;;;;;;5050365;28;19921;-57
2023/03/12 05:10:59;;;;;;;;;;;;;;;;;;5050596;28;20579;-57
2023/03/12 05:13:25;;;;;;;;;;;;;;;;;;5050347;28;19975;-57
2023/03/12 05:15:51;;;;;;;;;;;;;;;;;;5024402;28;19956;-56
2023/03/12 05:18:19;;;;;;;;;;;;;;;;;;5031100;28;19921;-57
2023/03/12 05:20:45;;;;;;;;;;;;;;;;;;5031721;28;19910;-57
2023/03/12 05:23:11;;;;;;;;;;;;;;;;;;5043173;28;20454;-57
2023/03/12 05:25:36;;;;;;;;;;;;;;;;;;5049926;28;19912;-57
2023/03/12 05:28:02;;;;;;;;;;;;;;;;;;5049442;28;19988;-56
2023/03/12 05:30:28;;;;;;;;;;;;;;;;;;5050683;28;19948;-57
2023/03/12 05:32:54;;;;;;;;;;;;;;;;;;5049961;28;20335;-56
2023/03/12 05:35:20;;;;;;;;;;;;;;;;;;5049468;28;19909;-56
2023/03/12 05:37:46;;;;;;;;;;;;;;;;;;5039437;28;19909;-57
2023/03/12 05:40:12;;;;;;;;;;;;;;;;;;5048339;28;19954;-57
2023/03/12 05:42:38;;;;;;;;;;;;;;;;;;5050092;28;19917;-57
2023/03/12 05:45:04;;;;;;;;;;;;;;;;;;5032345;28;20275;-57
2023/03/12 05:47:30;;;;;;;;;;;;;;;;;;5030656;28;19917;-57
2023/03/12 05:49:56;;;;;;;;;;;;;;;;;;5030194;28;20374;-57
2023/03/12 05:52:22;;;;;;;;;;;;;;;;;;5036865;28;19920;-57
2023/03/12 05:54:47;;;;;;;;;;;;;;;;;;5030604;28;19916;-57
2023/03/12 05:57:13;;;;;;;;;;;;;;;;;;5030416;28;19910;-57
2023/03/12 05:59:39;;;;;;;;;;;;;;;;;;5030834;28;20433;-57
2023/03/12 06:02:05;;;;;;;;;;;;;;;;;;5030520;28;20016;-56
2023/03/12 06:04:31;;;;;;;;;;;;;;;;;;5044957;28;19916;-57
2023/03/12 06:06:57;;;;;;;;;;;;;;;;;;5049750;28;20401;-57
2023/03/12 06:09:23;;;;;;;;;;;;;;;;;;5049549;28;20005;-57
2023/03/12 06:11:49;;;;;;;;;;;;;;;;;;5049248;28;20336;-57
2023/03/12 06:14:15;;;;;;;;;;;;;;;;;;5049442;28;20461;-57
2023/03/12 06:16:40;;;;;;;;;;;;;;;;;;5049326;28;19913;-57
2023/03/12 06:19:06;;;;;;;;;;;;;;;;;;5023062;28;20730;-56
2023/03/12 06:21:32;;;;;;;;;;;;;;;;;;5030275;28;19913;-56
2023/03/12 06:23:58;;;;;;;;;;;;;;;;;;5030150;28;19959;-56
2023/03/12 06:26:24;;;;;;;;;;;;;;;;;;5029088;28;20371;-56
2023/03/12 06:28:50;;;;;;;;;;;;;;;;;;5030229;28;19921;-56
2023/03/12 06:31:16;;;;;;;;;;;;;;;;;;5029877;28;19913;-57
2023/03/12 06:33:42;;;;;;;;;;;;;;;;;;5034464;28;19935;-56
2023/03/12 06:36:07;;;;;;;;;;;;;;;;;;5047860;28;19995;-56
2023/03/12 06:38:33;;;;;;;;;;;;;;;;;;5049126;28;19913;-56
2023/03/12 06:40:59;;;;;;;;;;;;;;;;;;5048171;28;19916;-55
2023/03/12 06:43:25;;;;;;;;;;;;;;;;;;5048322;28;20259;-56
2023/03/12 06:45:51;;;;;;;;;;;;;;;;;;5044163;28;19948;-56
2023/03/12 06:48:17;;;;;;;;;;;;;;;;;;5048625;28;20011;-57
2023/03/12 06:50:43;;;;;;;;;;;;;;;;;;5047411;28;19923;-56
2023/03/12 06:53:09;;;;;;;;;;;;;;;;;;5048359;28;20000;-57
2023/03/12 06:55:35;;;;;;;;;;;;;;;;;;5039727;28;19909;-57
2023/03/12 06:58:02;;;;;;;;;;;;;;;;;;5031385;28;20358;-56
2023/03/12 07:00:28;;;;;;;;;;;;;;;;;;5048576;28;19913;-57
2023/03/12 07:02:54;;;;;;;;;;;;;;;;;;5031691;28;19951;-56
2023/03/12 07:05:20;;;;;;;;;;;;;;;;;;5029652;28;19953;-57
2023/03/12 07:07:46;;;;;;;;;;;;;;;;;;5028759;28;20267;-56
2023/03/12 07:10:12;;;;;;;;;;;;;;;;;;5027499;28;19913;-56
2023/03/12 07:12:38;;;;;;;;;;;;;;;;;;5029517;28;20338;-57
2023/03/12 07:15:04;;;;;;;;;;;;;;;;;;5028940;28;19925;-57
2023/03/12 07:17:30;;;;;;;;;;;;;;;;;;5028826;28;20305;-57
2023/03/12 07:19:55;;;;;;;;;;;;;;;;;;5028865;28;20035;-56
2023/03/12 07:22:21;;;;;;;;;;;;;;;;;;5022185;28;19940;-56
2023/03/12 07:24:47;;;;;;;;;;;;;;;;;;5041226;28;19909;-56
2023/03/12 07:27:13;;;;;;;;;;;;;;;;;;5028874;28;19921;-55
2023/03/12 07:29:39;;;;;;;;;;;;;;;;;;5028913;28;19920;-56
2023/03/12 07:32:05;;;;;;;;;;;;;;;;;;5047165;28;20693;-56
2023/03/12 07:34:31;;;;;;;;;;;;;;;;;;5047625;28;20011;-56
2023/03/12 07:36:57;;;;;;;;;;;;;;;;;;5029835;28;19913;-57
2023/03/12 07:39:23;;;;;;;;;;;;;;;;;;5028264;28;19909;-56
2023/03/12 07:41:49;;;;;;;;;;;;;;;;;;5028828;28;20321;-56
2023/03/12 07:44:14;;;;;;;;;;;;;;;;;;5032406;28;20439;-54
2023/03/12 07:46:40;;;;;;;;;;;;;;;;;;5044916;28;19921;-57
2023/03/12 07:49:06;;;;;;;;;;;;;;;;;;5044797;28;19920;-56
2023/03/12 07:51:32;;;;;;;;;;;;;;;;;;5046952;28;19956;-56
2023/03/12 07:53:58;;;;;;;;;;;;;;;;;;5043126;28;19916;-56
2023/03/12 07:56:24;;;;;;;;;;;;;;;;;;5047330;28;19975;-57
2023/03/12 07:58:50;;;;;;;;;;;;;;;;;;5047018;28;19951;-58
2023/03/12 08:01:16;;;;;;;;;;;;;;;;;;5047331;28;19913;-58
2023/03/12 08:03:42;;;;;;;;;;;;;;;;;;5047151;28;19913;-58
2023/03/12 08:06:08;;;;;;;;;;;;;;;;;;5046776;28;20332;-58
2023/03/12 08:08:35;;;;;;;;;;;;;;;;;;5047608;28;20020;-58
2023/03/12 08:11:01;;;;;;;;;;;;;;;;;;5047026;28;19950;-58
2023/03/12 08:13:27;;;;;;;;;;;;;;;;;;5043294;28;20004;-58
2023/03/12 08:15:52;;;;;;;;;;;;;;;;;;5031461;28;19920;-57
2023/03/12 08:18:18;;;;;;;;;;;;;;;;;;5033798;28;19913;-57
2023/03/12 08:20:44;;;;;;;;;;;;;;;;;;5050473;28;20004;-57
2023/03/12 08:23:10;;;;;;;;;;;;;;;;;;5050731;28;20340;-57
2023/03/12 08:25:36;;;;;;;;;;;;;;;;;;5031649;28;20058;-57
2023/03/12 08:28:02;;;;;;;;;;;;;;;;;;5050330;28;20460;-57
2023/03/12 08:30:28;;;;;;;;;;;;;;;;;;5038278;28;19913;-56
2023/03/12 08:32:54;;;;;;;;;;;;;;;;;;5031427;28;19914;-57
2023/03/12 08:35:23;;;;;;;;;;;;;;;;;;5030601;28;19913;-57
2023/03/12 08:37:49;;;;;;;;;;;;;;;;;;5031402;28;19920;-56
2023/03/12 08:40:14;;;;;;;;;;;;;;;;;;5047357;28;19913;-57
2023/03/12 08:42:40;;;;;;;;;;;;;;;;;;5036860;28;19909;-57
2023/03/12 08:45:06;;;;;;;;;;;;;;;;;;5031756;28;19916;-56
2023/03/12 08:47:32;;;;;;;;;;;;;;;;;;5047413;28;20078;-56
2023/03/12 08:49:58;;;;;;;;;;;;;;;;;;5041450;28;19955;-57
2023/03/12 08:52:24;;;;;;;;;;;;;;;;;;5027008;28;19944;-58
2023/03/12 08:54:50;;;;;;;;;;;;;;;;;;5030578;28;19920;-59
2023/03/12 08:57:16;;;;;;;;;;;;;;;;;;5027341;28;19920;-59
2023/03/12 08:59:42;;;;;;;;;;;;;;;;;;5023938;28;19924;-59
2023/03/12 09:02:08;;;;;;;;;;;;;;;;;;5031103;28;19909;-58
2023/03/12 09:04:34;;;;;;;;;;;;;;;;;;5030066;28;19936;-58
2023/03/12 09:07:00;;;;;;;;;;;;;;;;;;5030972;28;19950;-58
2023/03/12 09:09:26;;;;;;;;;;;;;;;;;;5030626;28;20365;-59
2023/03/12 09:11:55;;;;;;;;;;;;;;;;;;5030826;28;19913;-59
2023/03/12 09:14:21;;;;;;;;;;;;;;;;;;5030334;28;19917;-58
2023/03/12 09:16:47;;;;;;;;;;;;;;;;;;5030150;28;19915;-58
2023/03/12 09:19:12;;;;;;;;;;;;;;;;;;5024223;28;20008;-58
2023/03/12 09:21:39;;;;;;;;;;;;;;;;;;5023874;28;20007;-58
2023/03/12 09:24:04;;;;;;;;;;;;;;;;;;5028822;28;19909;-58
2023/03/12 09:26:30;;;;;;;;;;;;;;;;;;5029027;28;19917;-58
2023/03/12 09:28:57;;;;;;;;;;;;;;;;;;5028946;28;19925;-56
2023/03/12 09:31:23;;;;;;;;;;;;;;;;;;5028887;28;19909;-58
2023/03/12 09:33:49;;;;;;;;;;;;;;;;;;5041718;28;19995;-59
2023/03/12 09:36:15;;;;;;;;;;;;;;;;;;5028368;28;19942;-58
2023/03/12 09:38:41;;;;;;;;;;;;;;;;;;5033795;28;20056;-59
2023/03/12 09:41:07;;;;;;;;;;;;;;;;;;5028798;28;19920;-61
2023/03/12 09:43:35;;;;;;;;;;;;;;;;;;5028517;28;19913;-62
2023/03/12 09:46:01;;;;;;;;;;;;;;;;;;5028154;28;19924;-63
2023/03/12 09:48:27;;;;;;;;;;;;;;;;;;5028853;28;19921;-61
2023/03/12 09:50:53;;;;;;;;;;;;;;;;;;5028255;28;20289;-59
2023/03/12 09:53:19;;;;;;;;;;;;;;;;;;5024210;28;19974;-60
2023/03/12 09:55:45;;;;;;;;;;;;;;;;;;5039415;28;19928;-60
2023/03/12 09:58:11;;;;;;;;;;;;;;;;;;5046293;28;19956;-60
2023/03/12 10:00:36;;;;;;;;;;;;;;;;;;5034561;28;20003;-60
2023/03/12 10:03:02;;;;;;;;;;;;;;;;;;5043592;28;19915;-60
2023/03/12 10:05:28;;;;;;;;;;;;;;;;;;5028682;28;19917;-60
2023/03/12 10:07:54;;;;;;;;;;;;;;;;;;5028433;28;19921;-60
2023/03/12 10:10:20;;;;;;;;;;;;;;;;;;5037701;28;19913;-61
2023/03/12 10:12:46;;;;;;;;;;;;;;;;;;5047486;28;19912;-60
2023/03/12 10:15:12;;;;;;;;;;;;;;;;;;5035914;28;19913;-60
2023/03/12 10:17:38;;;;;;;;;;;;;;;;;;5028325;28;20015;-60
2023/03/12 10:20:06;;;;;;;;;;;;;;;;;;5028851;28;19913;-60
2023/03/12 10:22:32;;;;;;;;;;;;;;;;;;5028651;28;20000;-60
2023/03/12 10:24:58;;;;;;;;;;;;;;;;;;5029056;28;20031;-61
2023/03/12 10:27:24;;;;;;;;;;;;;;;;;;5027480;28;20123;-59
2023/03/12 10:29:50;;;;;;;;;;;;;;;;;;5028014;28;19917;-61
2023/03/12 10:32:16;;;;;;;;;;;;;;;;;;5025434;28;19913;-60
2023/03/12 10:34:41;;;;;;;;;;;;;;;;;;5028646;28;20373;-60
2023/03/12 10:37:07;;;;;;;;;;;;;;;;;;5040764;28;19908;-61
2023/03/12 10:39:33;;;;;;;;;;;;;;;;;;5044054;28;19919;-60
2023/03/12 10:42:00;;;;;;;;;;;;;;;;;;5047725;28;19967;-61
2023/03/12 10:44:25;;;;;;;;;;;;;;;;;;5026755;28;19921;-60
2023/03/12 10:46:52;;;;;;;;;;;;;;;;;;5027407;28;19917;-62
2023/03/12 10:49:17;;;;;;;;;;;;;;;;;;5027597;28;19921;-61
2023/03/12 10:51:43;;;;;;;;;;;;;;;;;;5033241;28;19999;-61
2023/03/12 10:54:10;;;;;;;;;;;;;;;;;;5040683;28;20373;-61
2023/03/12 10:56:36;;;;;;;;;;;;;;;;;;5032060;28;19913;-62
2023/03/12 10:59:03;;;;;;;;;;;;;;;;;;5028655;28;19916;-62
2023/03/12 11:01:29;;;;;;;;;;;;;;;;;;5029439;28;19913;-62
2023/03/12 11:03:55;;;;;;;;;;;;;;;;;;5044881;28;20338;-62
2023/03/12 11:06:21;;;;;;;;;;;;;;;;;;5046717;28;20095;-62
2023/03/12 11:08:47;;;;;;;;;;;;;;;;;;5046725;28;20164;-62
2023/03/12 11:11:13;;;;;;;;;;;;;;;;;;5047177;28;20404;-62
2023/03/12 11:13:38;;;;;;;;;;;;;;;;;;5046460;28;19992;-62
2023/03/12 11:16:04;;;;;;;;;;;;;;;;;;5043431;28;19943;-63
2023/03/12 11:18:31;;;;;;;;;;;;;;;;;;5043984;28;19913;-62
2023/03/12 11:20:57;;;;;;;;;;;;;;;;;;5030269;28;19913;-61
2023/03/12 11:23:22;;;;;;;;;;;;;;;;;;5046970;28;19913;-63
2023/03/12 11:25:48;;;;;;;;;;;;;;;;;;5046305;28;19960;-62
2023/03/12 11:28:14;;;;;;;;;;;;;;;;;;5030728;28;20016;-61
2023/03/12 11:30:40;;;;;;;;;;;;;;;;;;5026548;28;19922;-63
2023/03/12 11:33:06;;;;;;;;;;;;;;;;;;5027578;28;19913;-62
2023/03/12 11:35:32;;;;;;;;;;;;;;;;;;5028296;28;19913;-63
2023/03/12 11:37:58;;;;;;;;;;;;;;;;;;5038916;28;19913;-61
2023/03/12 11:40:24;;;;;;;;;;;;;;;;;;5029152;28;19940;-63
2023/03/12 11:42:50;;;;;;;;;;;;;;;;;;5027636;28;19916;-63
2023/03/12 11:45:15;;;;;;;;;;;;;;;;;;5026557;28;19909;-62
2023/03/12 11:47:41;;;;;;;;;;;;;;;;;;5027425;28;19943;-63
2023/03/12 11:50:07;;;;;;;;;;;;;;;;;;5036303;28;19920;-62
2023/03/12 11:52:33;;;;;;;;;;;;;;;;;;5050283;28;19916;-63
2023/03/12 11:54:59;;;;;;;;;;;;;;;;;;5049593;28;20028;-63
2023/03/12 11:57:25;;;;;;;;;;;;;;;;;;5040077;28;19924;-62
2023/03/12 11:59:51;;;;;;;;;;;;;;;;;;5043129;28;19912;-63
2023/03/12 12:02:17;;;;;;;;;;;;;;;;;;5031117;28;20593;-63
2023/03/12 12:04:43;;;;;;;;;;;;;;;;;;5031052;28;19953;-62
2023/03/12 12:07:08;;;;;;;;;;;;;;;;;;5031224;28;20019;-62
2023/03/12 12:09:34;;;;;;;;;;;;;;;;;;5041244;28;20378;-63
2023/03/12 12:12:00;;;;;;;;;;;;;;;;;;5049770;28;19975;-63
2023/03/12 12:14:26;;;;;;;;;;;;;;;;;;5043898;28;19924;-62
2023/03/12 12:16:52;;;;;;;;;;;;;;;;;;5035119;28;19932;-63
2023/03/12 12:19:18;;;;;;;;;;;;;;;;;;5030602;28;20388;-63
2023/03/12 12:21:44;;;;;;;;;;;;;;;;;;5030500;28;19913;-63
2023/03/12 12:24:10;;;;;;;;;;;;;;;;;;5030290;28;19909;-62
2023/03/12 12:26:36;;;;;;;;;;;;;;;;;;5030173;28;19913;-63
2023/03/12 12:29:02;;;;;;;;;;;;;;;;;;5029518;28;19925;-62
2023/03/12 12:31:29;;;;;;;;;;;;;;;;;;5029368;28;19909;-63
2023/03/12 12:33:55;;;;;;;;;;;;;;;;;;5030267;28;19914;-62
2023/03/12 12:36:21;;;;;;;;;;;;;;;;;;5037525;28;20011;-64
2023/03/12 12:38:47;;;;;;;;;;;;;;;;;;5048965;28;19939;-62
2023/03/12 12:41:12;;;;;;;;;;;;;;;;;;5035949;28;20007;-62
2023/03/12 12:43:38;;;;;;;;;;;;;;;;;;5044539;28;19917;-63
2023/03/12 12:46:04;;;;;;;;;;;;;;;;;;5049406;28;19916;-60
2023/03/12 12:48:30;;;;;;;;;;;;;;;;;;5036500;28;19921;-62
2023/03/12 12:50:58;;;;;;;;;;;;;;;;;;5029671;28;19913;-63
2023/03/12 12:53:24;;;;;;;;;;;;;;;;;;5039778;28;19909;-62
2023/03/12 12:55:50;;;;;;;;;;;;;;;;;;5030763;28;19924;-63
2023/03/12 12:58:16;;;;;;;;;;;;;;;;;;5031787;28;19935;-62
2023/03/12 13:00:42;;;;;;;;;;;;;;;;;;5028747;28;20400;-63
2023/03/12 13:03:08;;;;;;;;;;;;;;;;;;5029545;28;19992;-63
2023/03/12 13:05:34;;;;;;;;;;;;;;;;;;5030243;28;19992;-63
2023/03/12 13:08:00;;;;;;;;;;;;;;;;;;5030441;28;19971;-63
2023/03/12 13:10:26;;;;;;;;;;;;;;;;;;5031040;28;19913;-63
2023/03/12 13:12:52;;;;;;;;;;;;;;;;;;5032929;28;19960;-63
2023/03/12 13:15:18;;;;;;;;;;;;;;;;;;5029313;28;19935;-62
2023/03/12 13:17:43;;;;;;;;;;;;;;;;;;5030116;28;19920;-63
2023/03/12 13:20:09;;;;;;;;;;;;;;;;;;5031954;28;19920;-62
2023/03/12 13:22:35;;;;;;;;;;;;;;;;;;5033939;28;20304;-62
2023/03/12 13:25:01;;;;;;;;;;;;;;;;;;5029072;28;20381;-63
2023/03/12 13:27:27;;;;;;;;;;;;;;;;;;5028849;28;20023;-63
2023/03/12 13:29:56;;;;;;;;;;;;;;;;;;5028978;28;19913;-62
2023/03/12 13:32:22;;;;;;;;;;;;;;;;;;5029314;28;20305;-63
2023/03/12 13:34:48;;;;;;;;;;;;;;;;;;5027343;28;19913;-63
2023/03/12 13:37:14;;;;;;;;;;;;;;;;;;5044201;28;20556;-63
2023/03/12 13:39:41;;;;;;;;;;;;;;;;;;5042505;28;20105;-63
2023/03/12 13:42:07;;;;;;;;;;;;;;;;;;5045574;28;19913;-63
2023/03/12 13:44:33;;;;;;;;;;;;;;;;;;5027969;28;20011;-62
2023/03/12 13:46:59;;;;;;;;;;;;;;;;;;5035847;28;20378;-62
2023/03/12 13:49:24;;;;;;;;;;;;;;;;;;5046061;28;19970;-63
2023/03/12 13:51:50;;;;;;;;;;;;;;;;;;5029679;28;19979;-63
2023/03/12 13:54:16;;;;;;;;;;;;;;;;;;5029427;28;19947;-63
2023/03/12 13:56:42;;;;;;;;;;;;;;;;;;5028932;28;19913;-63
2023/03/12 13:59:08;;;;;;;;;;;;;;;;;;5028433;28;20407;-63
2023/03/12 14:01:34;;;;;;;;;;;;;;;;;;5028079;28;19920;-62
2023/03/12 14:04:00;;;;;;;;;;;;;;;;;;5028321;28;19913;-63
2023/03/12 14:06:27;;;;;;;;;;;;;;;;;;5028614;28;19909;-62
2023/03/12 14:08:53;;;;;;;;;;;;;;;;;;5040245;28;19925;-63
2023/03/12 14:11:19;;;;;;;;;;;;;;;;;;5046134;28;19916;-62
2023/03/12 14:13:45;;;;;;;;;;;;;;;;;;5028473;28;19913;-62
2023/03/12 14:16:11;;;;;;;;;;;;;;;;;;5030107;28;20114;-62
2023/03/12 14:18:37;;;;;;;;;;;;;;;;;;5027433;28;19913;-61
2023/03/12 14:21:02;;;;;;;;;;;;;;;;;;5029657;28;19917;-62
2023/03/12 14:23:28;;;;;;;;;;;;;;;;;;5031567;28;19948;-62
2023/03/12 14:25:54;;;;;;;;;;;;;;;;;;5027807;28;19913;-63
2023/03/12 14:28:20;;;;;;;;;;;;;;;;;;5027776;28;19936;-62
2023/03/12 14:30:46;;;;;;;;;;;;;;;;;;5028476;28;19956;-62
2023/03/12 14:33:12;;;;;;;;;;;;;;;;;;5044350;28;20011;-63
2023/03/12 14:35:38;;;;;;;;;;;;;;;;;;5042100;28;19913;-63
2023/03/12 14:38:04;;;;;;;;;;;;;;;;;;5041769;28;19940;-62
2023/03/12 14:40:30;;;;;;;;;;;;;;;;;;5046687;28;19967;-62
2023/03/12 14:42:56;;;;;;;;;;;;;;;;;;5046686;28;20444;-64
2023/03/12 14:45:22;;;;;;;;;;;;;;;;;;5038538;28;20015;-63
2023/03/12 14:47:48;;;;;;;;;;;;;;;;;;5023814;28;20023;-62
2023/03/12 14:50:14;;;;;;;;;;;;;;;;;;5027782;28;20377;-62
2023/03/12 14:52:40;;;;;;;;;;;;;;;;;;5033869;28;19920;-61
2023/03/12 14:55:05;;;;;;;;;;;;;;;;;;5046356;28;19919;-62
2023/03/12 14:57:31;;;;;;;;;;;;;;;;;;5040391;28;19967;-63
2023/03/12 14:59:57;;;;;;;;;;;;;;;;;;5046668;28;19952;-63
2023/03/12 15:02:23;;;;;;;;;;;;;;;;;;5046709;28;19919;-63
2023/03/12 15:04:49;;;;;;;;;;;;;;;;;;5031462;28;20015;-62
2023/03/12 15:07:15;;;;;;;;;;;;;;;;;;5026675;28;19921;-62
2023/03/12 15:09:41;;;;;;;;;;;;;;;;;;5027786;28;19917;-62
2023/03/12 15:12:07;;;;;;;;;;;;;;;;;;5026613;28;19917;-63
2023/03/12 15:14:32;;;;;;;;;;;;;;;;;;5027517;28;19921;-63
2023/03/12 15:16:59;;;;;;;;;;;;;;;;;;5043635;28;19966;-62
2023/03/12 15:19:25;;;;;;;;;;;;;;;;;;5028358;28;19913;-61
2023/03/12 15:21:50;;;;;;;;;;;;;;;;;;5031332;28;19913;-64
2023/03/12 15:24:17;;;;;;;;;;;;;;;;;;5045436;28;19948;-63
2023/03/12 15:26:43;;;;;;;;;;;;;;;;;;5037560;28;19921;-63
2023/03/12 15:29:09;;;;;;;;;;;;;;;;;;5026694;28;19956;-62
2023/03/12 15:31:35;;;;;;;;;;;;;;;;;;5025591;28;19909;-62
2023/03/12 15:34:00;;;;;;;;;;;;;;;;;;5026829;28;20382;-61
2023/03/12 15:36:26;;;;;;;;;;;;;;;;;;5028371;28;19925;-62
2023/03/12 15:38:52;;;;;;;;;;;;;;;;;;5026669;28;20516;-62
2023/03/12 15:41:18;;;;;;;;;;;;;;;;;;5027007;28;19913;-62
2023/03/12 15:43:44;;;;;;;;;;;;;;;;;;5026995;28;20282;-61
2023/03/12 15:46:10;;;;;;;;;;;;;;;;;;5027342;28;19953;-64
2023/03/12 15:48:36;;;;;;;;;;;;;;;;;;5026975;28;20449;-63
2023/03/12 15:51:02;;;;;;;;;;;;;;;;;;5034435;28;19913;-62
2023/03/12 15:53:29;;;;;;;;;;;;;;;;;;5041525;28;19924;-62
2023/03/12 15:55:55;;;;;;;;;;;;;;;;;;5024232;28;19968;-63
2023/03/12 15:58:21;;;;;;;;;;;;;;;;;;5026949;28;20028;-62
2023/03/12 16:00:47;;;;;;;;;;;;;;;;;;5027143;28;19913;-64
2023/03/12 16:03:13;;;;;;;;;;;;;;;;;;5028755;28;19913;-61
2023/03/12 16:05:39;;;;;;;;;;;;;;;;;;5027386;28;19919;-61
2023/03/12 16:08:05;;;;;;;;;;;;;;;;;;5026477;28;20337;-61
2023/03/12 16:10:31;;;;;;;;;;;;;;;;;;5028536;28;19936;-61
2023/03/12 16:12:57;;;;;;;;;;;;;;;;;;5022344;28;19913;-61
2023/03/12 16:15:23;;;;;;;;;;;;;;;;;;5024233;28;20040;-62
2023/03/12 16:17:49;;;;;;;;;;;;;;;;;;5026211;28;19913;-63
2023/03/12 16:20:16;;;;;;;;;;;;;;;;;;5026077;28;20004;-61
2023/03/12 16:22:42;;;;;;;;;;;;;;;;;;5031947;28;19913;-62
2023/03/12 16:25:08;;;;;;;;;;;;;;;;;;5046715;28;19909;-62
2023/03/12 16:27:38;;;;;;;;;;;;;;;;;;5046374;28;19974;-61
2023/03/12 16:30:03;;;;;;;;;;;;;;;;;;5046389;28;19913;-62
2023/03/12 16:32:29;;;;;;;;;;;;;;;;;;5041656;28;20000;-61
2023/03/12 16:34:55;;;;;;;;;;;;;;;;;;5027935;28;19913;-63
2023/03/12 16:37:21;;;;;;;;;;;;;;;;;;5044890;28;19912;-62